Time;durP1;ratioP1;P1;durP2;ratioP2;P2;SDS_P1;SDS_P2;PMS_P1;PMS_P2;Temp;Humidity;BMP_temperature;BMP_pressure;BME280_temperature;BME280_humidity;BME280_pressure;Samples;Min_cycle;Max_cycle;Signal;HPM_P1;HPM_P2
2023/10/12 00:01:57;;;;;;;;;;;17.90;99.90;;;;;;5077708;28;19969;-76
2023/10/12 00:04:35;;;;;;;;;;;17.80;99.90;;;;;;5076549;28;19909;-75
2023/10/12 00:07:09;;;;;;;;;;;17.90;99.90;;;;;;5077895;28;20376;-75
2023/10/12 00:09:34;;;;;;;;;;;17.90;99.90;;;;;;5076681;28;20295;-75
2023/10/12 00:12:07;;;;;;;;;;;17.80;99.90;;;;;;5076374;28;19969;-75
2023/10/12 00:14:33;;;;;;;;;;;17.80;99.90;;;;;;5076029;28;19909;-75
2023/10/12 00:16:59;;;;;;;;;;;17.70;99.90;;;;;;5077566;28;19908;-74
2023/10/12 00:19:25;;;;;;;;;;;17.80;99.90;;;;;;5077616;28;20011;-73
2023/10/12 00:21:56;;;;;;;;;;;17.80;99.90;;;;;;5076152;28;19956;-75
2023/10/12 00:24:22;;;;;;;;;;;17.70;99.90;;;;;;5077457;28;19908;-76
2023/10/12 00:26:49;;;;;;;;;;;17.80;99.90;;;;;;5077154;28;19909;-76
2023/10/12 00:29:15;;;;;;;;;;;17.90;99.90;;;;;;5077323;28;20007;-76
2023/10/12 00:31:43;;;;;;;;;;;17.90;99.90;;;;;;5077045;28;20152;-75
2023/10/12 00:34:12;;;;;;;;;;;17.90;99.90;;;;;;5077286;28;19955;-75
2023/10/12 00:36:40;;;;;;;;;;;17.90;99.90;;;;;;5075349;28;21890;-75
2023/10/12 00:39:09;;;;;;;;;;;17.90;99.90;;;;;;5077037;28;19913;-76
2023/10/12 00:41:36;;;;;;;;;;;17.90;99.90;;;;;;5077175;28;19960;-74
2023/10/12 00:49:16;;;;;;;;;;;17.90;99.90;;;;;;5076838;28;19923;-77
2023/10/12 00:51:49;;;;;;;;;;;17.90;99.90;;;;;;5077008;28;19962;-76
2023/10/12 00:54:25;;;;;;;;;;;18.00;99.90;;;;;;5075540;28;19962;-74
2023/10/12 00:56:56;;;;;;;;;;;18.00;99.90;;;;;;5076791;28;19966;-77
2023/10/12 00:59:22;;;;;;;;;;;17.90;99.90;;;;;;5076559;28;19917;-74
2023/10/12 01:01:50;;;;;;;;;;;17.90;99.90;;;;;;5075222;28;20338;-75
2023/10/12 01:04:16;;;;;;;;;;;17.90;99.90;;;;;;5076796;28;19959;-75
2023/10/12 01:06:47;;;;;;;;;;;17.90;99.90;;;;;;5075180;28;19936;-75
2023/10/12 01:09:19;;;;;;;;;;;17.90;99.90;;;;;;5075180;28;19935;-74
2023/10/12 01:12:00;;;;;;;;;;;17.80;99.90;;;;;;5091983;28;20406;-75
2023/10/12 01:14:28;;;;;;;;;;;17.80;99.90;;;;;;5076766;28;20442;-75
2023/10/12 01:16:54;;;;;;;;;;;17.80;99.90;;;;;;5076626;28;19948;-76
2023/10/12 01:19:21;;;;;;;;;;;17.80;99.90;;;;;;5076703;28;19970;-75
2023/10/12 01:22:03;;;;;;;;;;;17.70;99.90;;;;;;5075083;28;19913;-76
2023/10/12 01:24:32;;;;;;;;;;;17.80;99.90;;;;;;5076361;28;19942;-77
2023/10/12 01:26:59;;;;;;;;;;;17.70;99.90;;;;;;5076402;28;20464;-75
2023/10/12 01:29:25;;;;;;;;;;;17.80;99.90;;;;;;5075959;28;20368;-75
2023/10/12 01:32:38;;;;;;;;;;;17.70;99.90;;;;;;5076153;28;20011;-75
2023/10/12 01:34:44;;;;;;;;;;;17.70;99.90;;;;;;5068692;28;19913;-75
2023/10/12 01:37:20;;;;;;;;;;;17.70;99.90;;;;;;5075688;28;19916;-76
2023/10/12 01:39:55;;;;;;;;;;;17.60;99.90;;;;;;5076185;28;20375;-75
2023/10/12 01:42:21;;;;;;;;;;;17.60;99.90;;;;;;5076561;28;19915;-76
2023/10/12 01:44:47;;;;;;;;;;;17.60;99.90;;;;;;5074894;28;20034;-75
2023/10/12 01:47:13;;;;;;;;;;;17.50;99.90;;;;;;5076123;28;19916;-75
2023/10/12 01:49:39;;;;;;;;;;;17.50;99.90;;;;;;5076408;28;19917;-75
2023/10/12 01:52:08;;;;;;;;;;;17.60;99.90;;;;;;5076288;28;19909;-76
2023/10/12 01:54:35;;;;;;;;;;;17.50;99.90;;;;;;5075844;28;19912;-76
2023/10/12 01:57:04;;;;;;;;;;;17.40;99.90;;;;;;5077199;28;19963;-76
2023/10/12 01:59:31;;;;;;;;;;;17.40;99.90;;;;;;5076040;28;19958;-75
2023/10/12 02:02:13;;;;;;;;;;;17.40;99.90;;;;;;5074574;28;19916;-75
2023/10/12 02:04:40;;;;;;;;;;;17.30;99.90;;;;;;5091583;28;19913;-76
2023/10/12 02:07:07;;;;;;;;;;;17.30;99.90;;;;;;5075984;28;20335;-75
2023/10/12 02:09:34;;;;;;;;;;;17.40;99.90;;;;;;5076003;28;19916;-76
2023/10/12 02:12:09;;;;;;;;;;;17.40;99.90;;;;;;5075839;28;20323;-75
2023/10/12 02:14:39;;;;;;;;;;;17.30;99.90;;;;;;5075830;28;19958;-76
2023/10/12 02:17:05;;;;;;;;;;;17.30;99.90;;;;;;5075893;28;20014;-76
2023/10/12 02:19:36;;;;;;;;;;;17.30;99.90;;;;;;5075885;28;19935;-77
2023/10/12 02:22:04;;;;;;;;;;;17.20;99.90;;;;;;5074510;28;19913;-75
2023/10/12 02:24:29;;;;;;;;;;;17.20;99.90;;;;;;5075878;28;19916;-75
2023/10/12 02:26:55;;;;;;;;;;;17.10;99.90;;;;;;5075721;28;20000;-76
2023/10/12 02:29:20;;;;;;;;;;;17.10;99.90;;;;;;5075743;28;20379;-76
2023/10/12 02:34:19;;;;;;;;;;;16.90;99.90;;;;;;5075890;28;20406;-75
2023/10/12 02:39:30;;;;;;;;;;;16.80;99.90;;;;;;5075748;28;19930;-75
2023/10/12 02:45:08;;;;;;;;;;;16.60;99.90;;;;;;5075390;28;19919;-75
2023/10/12 02:47:32;;;;;;;;;;;16.50;99.90;;;;;;5075503;28;19909;-75
2023/10/12 02:52:34;;;;;;;;;;;16.30;99.90;;;;;;5079509;28;20378;-75
2023/10/12 02:55:19;;;;;;;;;;;16.20;99.90;;;;;;5079221;28;19975;-75
2023/10/12 02:57:53;;;;;;;;;;;16.20;99.90;;;;;;5079214;28;19956;-75
2023/10/12 03:00:58;;;;;;;;;;;16.10;99.90;;;;;;5075831;28;19913;-75
2023/10/12 03:03:26;;;;;;;;;;;16.10;99.90;;;;;;5074893;28;19912;-76
2023/10/12 03:05:58;;;;;;;;;;;16.20;99.90;;;;;;5065719;28;19935;-75
2023/10/12 03:08:23;;;;;;;;;;;16.10;99.90;;;;;;5078036;28;19908;-75
2023/10/12 03:11:01;;;;;;;;;;;16.10;99.90;;;;;;5077734;28;19990;-75
2023/10/12 03:13:34;;;;;;;;;;;16.10;99.90;;;;;;5078225;28;19912;-76
2023/10/12 03:16:08;;;;;;;;;;;16.20;99.90;;;;;;5077439;28;19915;-75
2023/10/12 03:18:34;;;;;;;;;;;16.30;99.90;;;;;;5078714;28;19908;-75
2023/10/12 03:21:11;;;;;;;;;;;16.30;99.90;;;;;;5077360;28;19919;-75
2023/10/12 03:23:41;;;;;;;;;;;16.30;99.90;;;;;;5077282;28;19909;-75
2023/10/12 03:26:26;;;;;;;;;;;16.20;99.90;;;;;;5078692;28;19912;-75
2023/10/12 03:29:18;;;;;;;;;;;16.20;99.90;;;;;;5078401;28;20296;-75
2023/10/12 03:34:35;;;;;;;;;;;16.10;99.90;;;;;;5078642;28;19952;-75
2023/10/12 03:37:03;;;;;;;;;;;16.00;99.90;;;;;;5077336;28;20396;-75
2023/10/12 03:39:43;;;;;;;;;;;15.90;99.90;;;;;;5078407;28;19909;-75
2023/10/12 03:44:54;;;;;;;;;;;15.80;99.90;;;;;;5078348;28;20041;-75
2023/10/12 03:52:19;;;;;;;;;;;15.70;99.90;;;;;;5078375;28;20358;-75
2023/10/12 03:54:55;;;;;;;;;;;15.60;99.90;;;;;;5078127;28;19923;-75
2023/10/12 03:58:06;;;;;;;;;;;15.60;99.90;;;;;;5078005;28;19955;-75
2023/10/12 04:03:10;;;;;;;;;;;15.50;99.90;;;;;;5078135;28;19962;-75
2023/10/12 04:16:09;;;;;;;;;;;15.60;99.90;;;;;;5077631;28;19966;-74
2023/10/12 04:18:42;;;;;;;;;;;15.60;99.90;;;;;;5077628;28;19922;-74
2023/10/12 04:21:10;;;;;;;;;;;15.60;99.90;;;;;;5077624;28;19912;-74
2023/10/12 04:28:39;;;;;;;;;;;15.80;99.90;;;;;;5077357;28;19961;-75
2023/10/12 04:33:43;;;;;;;;;;;15.90;99.90;;;;;;5077571;28;19909;-75
2023/10/12 04:36:13;;;;;;;;;;;15.90;99.90;;;;;;5077476;28;20018;-75
2023/10/12 04:43:52;;;;;;;;;;;15.70;99.90;;;;;;5077253;28;19919;-74
2023/10/12 04:48:50;;;;;;;;;;;15.60;99.90;;;;;;5077117;28;20350;-74
2023/10/12 04:51:21;;;;;;;;;;;15.60;99.90;;;;;;5077093;28;19916;-74
2023/10/12 04:54:23;;;;;;;;;;;15.50;99.90;;;;;;5076956;28;19978;-75
2023/10/12 04:56:58;;;;;;;;;;;15.40;99.90;;;;;;5076783;28;19912;-74
2023/10/12 04:59:28;;;;;;;;;;;15.60;99.90;;;;;;5075255;28;19958;-74
2023/10/12 05:04:38;;;;;;;;;;;15.70;99.90;;;;;;5077136;28;19919;-75
2023/10/12 05:09:38;;;;;;;;;;;15.70;99.90;;;;;;5076854;28;19959;-75
2023/10/12 05:12:04;;;;;;;;;;;15.70;99.90;;;;;;5075639;28;19920;-74
2023/10/12 05:14:31;;;;;;;;;;;15.70;99.90;;;;;;5076358;28;20331;-75
2023/10/12 05:16:56;;;;;;;;;;;15.60;99.90;;;;;;5076817;28;19931;-75
2023/10/12 05:19:22;;;;;;;;;;;15.70;99.90;;;;;;5075372;28;19909;-75
2023/10/12 05:21:47;;;;;;;;;;;15.70;99.90;;;;;;5076484;28;19995;-75
2023/10/12 05:24:13;;;;;;;;;;;15.80;99.90;;;;;;5075139;28;19915;-75
2023/10/12 05:26:38;;;;;;;;;;;15.80;99.90;;;;;;5076371;28;19913;-75
2023/10/12 05:31:57;;;;;;;;;;;16.20;99.90;;;;;;5076293;28;19965;-74
2023/10/12 05:35:05;;;;;;;;;;;16.20;99.90;;;;;;5076341;28;19913;-75
2023/10/12 05:39:46;;;;;;;;;;;16.50;99.90;;;;;;5076432;28;19915;-75
2023/10/12 05:42:15;;;;;;;;;;;16.50;99.90;;;;;;5076556;28;19955;-74
2023/10/12 05:44:44;;;;;;;;;;;16.50;99.90;;;;;;5075995;28;20402;-74
2023/10/12 05:47:11;;;;;;;;;;;16.50;99.90;;;;;;5074826;28;20018;-74
2023/10/12 05:49:37;;;;;;;;;;;16.50;99.90;;;;;;5076241;28;19912;-74
2023/10/12 05:52:05;;;;;;;;;;;16.50;99.90;;;;;;5076232;28;19914;-75
2023/10/12 05:54:31;;;;;;;;;;;16.40;99.90;;;;;;5076268;28;19962;-75
2023/10/12 05:56:57;;;;;;;;;;;16.30;99.90;;;;;;5075998;28;19913;-74
2023/10/12 05:59:24;;;;;;;;;;;16.20;99.90;;;;;;5075851;28;19913;-75
2023/10/12 06:01:50;;;;;;;;;;;16.10;99.90;;;;;;5074599;28;19909;-75
2023/10/12 06:04:15;;;;;;;;;;;16.10;99.90;;;;;;5076072;28;20132;-75
2023/10/12 06:06:44;;;;;;;;;;;16.00;99.90;;;;;;5075933;28;19967;-75
2023/10/12 06:09:13;;;;;;;;;;;16.10;99.90;;;;;;5076265;28;19912;-75
2023/10/12 06:11:43;;;;;;;;;;;16.20;99.90;;;;;;5075978;28;19962;-74
2023/10/12 06:14:09;;;;;;;;;;;16.20;99.90;;;;;;5075843;28;19908;-75
2023/10/12 06:16:41;;;;;;;;;;;16.20;99.90;;;;;;5075829;28;19995;-74
2023/10/12 06:19:23;;;;;;;;;;;16.10;99.90;;;;;;5075938;28;19916;-74
2023/10/12 06:21:51;;;;;;;;;;;16.10;99.90;;;;;;5074591;28;20431;-74
2023/10/12 06:24:35;;;;;;;;;;;16.10;99.90;;;;;;5077087;28;20031;-74
2023/10/12 06:29:45;;;;;;;;;;;16.10;99.90;;;;;;5079599;28;19912;-74
2023/10/12 06:32:17;;;;;;;;;;;16.20;99.90;;;;;;5079431;28;20351;-74
2023/10/12 06:34:43;;;;;;;;;;;16.30;99.90;;;;;;5079816;28;19920;-74
2023/10/12 06:37:30;;;;;;;;;;;16.30;99.90;;;;;;5079612;28;19909;-75
2023/10/12 06:42:45;;;;;;;;;;;16.20;99.90;;;;;;5070716;28;19908;-74
2023/10/12 06:45:15;;;;;;;;;;;16.20;99.90;;;;;;5079145;28;20291;-74
2023/10/12 06:47:41;;;;;;;;;;;16.10;99.90;;;;;;5079487;28;19915;-74
2023/10/12 06:50:14;;;;;;;;;;;16.20;99.90;;;;;;5079250;28;19916;-75
2023/10/12 06:52:41;;;;;;;;;;;16.10;99.90;;;;;;5079293;28;19909;-74
2023/10/12 06:55:08;;;;;;;;;;;16.20;99.90;;;;;;5077983;28;19908;-74
2023/10/12 06:57:43;;;;;;;;;;;16.30;99.90;;;;;;5079172;28;20445;-74
2023/10/12 07:02:35;;;;;;;;;;;16.30;99.90;;;;;;5079184;28;20368;-74
2023/10/12 07:05:04;;;;;;;;;;;16.30;99.90;;;;;;5077967;28;19931;-74
2023/10/12 07:07:36;;;;;;;;;;;16.40;99.90;;;;;;5079353;28;19932;-74
2023/10/12 07:12:41;;;;;;;;;;;16.60;99.90;;;;;;5078986;28;19999;-74
2023/10/12 07:15:19;;;;;;;;;;;16.70;99.90;;;;;;5077226;28;19908;-74
2023/10/12 07:17:49;;;;;;;;;;;16.80;99.90;;;;;;5077520;28;19908;-74
2023/10/12 07:23:19;;;;;;;;;;;17.00;99.90;;;;;;5079281;28;19908;-74
2023/10/12 07:25:46;;;;;;;;;;;17.10;99.90;;;;;;5078624;28;19943;-74
2023/10/12 07:33:59;;;;;;;;;;;17.50;99.90;;;;;;5052558;28;19939;-76
2023/10/12 07:39:22;;;;;;;;;;;18.00;99.90;;;;;;5078483;28;19915;-75
2023/10/12 07:42:00;;;;;;;;;;;18.30;99.90;;;;;;5078407;28;19955;-73
2023/10/12 07:44:38;;;;;;;;;;;18.60;99.90;;;;;;5078103;28;19909;-74
2023/10/12 07:47:13;;;;;;;;;;;18.80;99.90;;;;;;5077267;28;19942;-75
2023/10/12 07:49:40;;;;;;;;;;;19.10;99.90;;;;;;5076900;28;20003;-74
2023/10/12 07:53:06;;;;;;;;;;;19.30;99.90;;;;;;5078322;28;19908;-74
2023/10/12 07:54:58;;;;;;;;;;;19.40;99.90;;;;;;5073980;28;19912;-74
2023/10/12 07:57:29;;;;;;;;;;;19.50;99.90;;;;;;5078178;28;19939;-74
2023/10/12 08:02:59;;;;;;;;;;;19.70;99.90;;;;;;5078117;28;19913;-75
2023/10/12 08:05:24;;;;;;;;;;;19.80;99.90;;;;;;5077839;28;19909;-75
2023/10/12 08:10:56;;;;;;;;;;;20.00;99.90;;;;;;5077770;28;19913;-74
2023/10/12 08:23:57;;;;;;;;;;;20.60;99.90;;;;;;5077602;28;19951;-74
2023/10/12 08:29:09;;;;;;;;;;;20.80;99.90;;;;;;5077496;28;20354;-74
2023/10/12 08:31:43;;;;;;;;;;;20.90;99.90;;;;;;5076302;28;19924;-74
2023/10/12 08:40:22;;;;;;;;;;;21.20;99.90;;;;;;5077437;28;19909;-75
2023/10/12 08:44:59;;;;;;;;;;;21.40;99.90;;;;;;5076894;28;19908;-74
2023/10/12 08:50:01;;;;;;;;;;;21.50;99.90;;;;;;5077235;28;19912;-74
2023/10/12 08:52:27;;;;;;;;;;;21.60;99.90;;;;;;5077109;28;20433;-74
2023/10/12 08:54:56;;;;;;;;;;;21.60;99.90;;;;;;5077079;28;20408;-76
2023/10/12 08:57:43;;;;;;;;;;;21.60;99.90;;;;;;5075827;28;19923;-74
2023/10/12 09:03:00;;;;;;;;;;;21.80;99.90;;;;;;5077105;28;20482;-75
2023/10/12 09:05:33;;;;;;;;;;;21.90;99.90;;;;;;5076789;28;19919;-75
2023/10/12 09:11:03;;;;;;;;;;;21.90;99.90;;;;;;5076875;28;19917;-74
2023/10/12 09:13:33;;;;;;;;;;;22.00;99.90;;;;;;5076433;28;19958;-75
2023/10/12 09:16:00;;;;;;;;;;;22.10;99.90;;;;;;5076810;28;19915;-75
2023/10/12 09:18:43;;;;;;;;;;;22.10;99.90;;;;;;5076566;28;19913;-74
2023/10/12 09:24:28;;;;;;;;;;;22.20;99.90;;;;;;5076950;28;19916;-75
2023/10/12 09:27:11;;;;;;;;;;;22.30;99.90;;;;;;5075060;28;19909;-76
2023/10/12 09:29:57;;;;;;;;;;;22.20;99.90;;;;;;5074587;28;20041;-75
2023/10/12 09:32:25;;;;;;;;;;;22.40;99.90;;;;;;5078103;28;19967;-74
2023/10/12 09:37:22;;;;;;;;;;;22.50;99.90;;;;;;5076394;28;19912;-75
2023/10/12 09:39:48;;;;;;;;;;;22.60;99.90;;;;;;5074765;28;19912;-75
2023/10/12 09:42:40;;;;;;;;;;;22.60;99.90;;;;;;5076425;28;19912;-75
2023/10/12 09:45:08;;;;;;;;;;;22.60;99.90;;;;;;5071534;28;19908;-74
2023/10/12 09:47:52;;;;;;;;;;;22.60;99.90;;;;;;5091741;28;19984;-74
2023/10/12 09:50:19;;;;;;;;;;;22.70;99.90;;;;;;5076476;28;19962;-74
2023/10/12 09:52:46;;;;;;;;;;;22.70;99.90;;;;;;5076158;28;19916;-74
2023/10/12 09:55:17;;;;;;;;;;;22.90;99.90;;;;;;5076229;28;19913;-74
2023/10/12 09:57:50;;;;;;;;;;;22.90;99.90;;;;;;5077210;28;19959;-74
2023/10/12 10:01:01;;;;;;;;;;;22.90;99.90;;;;;;5082389;28;19909;-74
2023/10/12 10:03:08;;;;;;;;;;;23.00;99.90;;;;;;5076806;28;19954;-75
2023/10/12 10:05:54;;;;;;;;;;;23.00;99.90;;;;;;5082870;28;19916;-75
2023/10/12 10:08:20;;;;;;;;;;;23.10;99.90;;;;;;5083207;28;19962;-74
2023/10/12 10:10:48;;;;;;;;;;;23.10;99.90;;;;;;5081771;28;19998;-74
2023/10/12 10:13:37;;;;;;;;;;;23.10;99.90;;;;;;5082406;28;19912;-75
2023/10/12 10:16:08;;;;;;;;;;;23.20;99.90;;;;;;5082988;28;19976;-74
2023/10/12 10:18:42;;;;;;;;;;;23.30;99.90;;;;;;5081462;28;19912;-75
2023/10/12 10:21:08;;;;;;;;;;;23.30;99.90;;;;;;5082780;28;19954;-74
2023/10/12 10:23:39;;;;;;;;;;;23.40;99.90;;;;;;5081175;28;20015;-74
2023/10/12 10:26:17;;;;;;;;;;;23.50;99.90;;;;;;5082589;28;19916;-74
2023/10/12 10:28:54;;;;;;;;;;;23.50;99.90;;;;;;5097939;28;19909;-75
2023/10/12 10:31:32;;;;;;;;;;;23.50;99.90;;;;;;5082360;28;19925;-73
2023/10/12 10:34:01;;;;;;;;;;;23.60;99.90;;;;;;5081072;28;20001;-74
2023/10/12 10:36:28;;;;;;;;;;;23.60;99.90;;;;;;5082421;28;20393;-75
2023/10/12 10:41:37;;;;;;;;;;;23.70;99.90;;;;;;5082719;28;19916;-74
2023/10/12 10:44:03;;;;;;;;;;;23.70;99.90;;;;;;5082160;28;20345;-74
2023/10/12 10:46:28;;;;;;;;;;;23.80;99.90;;;;;;5082357;28;19913;-75
2023/10/12 10:48:54;;;;;;;;;;;24.00;99.90;;;;;;5082081;28;19919;-74
2023/10/12 10:51:27;;;;;;;;;;;24.00;99.90;;;;;;5082378;28;19919;-74
2023/10/12 10:53:53;;;;;;;;;;;24.00;99.90;;;;;;5082424;28;19959;-74
2023/10/12 10:56:34;;;;;;;;;;;24.10;99.90;;;;;;5082363;28;19917;-74
2023/10/12 10:59:04;;;;;;;;;;;24.10;99.90;;;;;;5082129;28;19912;-74
2023/10/12 11:01:30;;;;;;;;;;;24.10;99.90;;;;;;5082277;28;19912;-74
2023/10/12 11:03:58;;;;;;;;;;;24.20;99.90;;;;;;5080748;28;20048;-74
2023/10/12 11:06:27;;;;;;;;;;;24.20;99.90;;;;;;5080959;28;19931;-74
2023/10/12 11:09:06;;;;;;;;;;;24.20;99.90;;;;;;5082007;28;19908;-75
2023/10/12 11:11:44;;;;;;;;;;;24.20;99.90;;;;;;5077589;28;19957;-74
2023/10/12 11:14:11;;;;;;;;;;;24.30;99.90;;;;;;5078823;28;19912;-74
2023/10/12 11:16:37;;;;;;;;;;;24.50;99.90;;;;;;5078796;28;19915;-75
2023/10/12 11:19:04;;;;;;;;;;;24.50;99.90;;;;;;5078900;28;20338;-74
2023/10/12 11:21:29;;;;;;;;;;;24.50;99.90;;;;;;5078792;28;20277;-75
2023/10/12 11:23:58;;;;;;;;;;;24.60;99.90;;;;;;5078769;28;19934;-74
2023/10/12 11:26:25;;;;;;;;;;;24.60;99.90;;;;;;5078697;28;19915;-75
2023/10/12 11:29:04;;;;;;;;;;;24.70;99.90;;;;;;5078621;28;20423;-73
2023/10/12 11:31:32;;;;;;;;;;;24.80;99.90;;;;;;5078241;28;20044;-75
2023/10/12 11:33:59;;;;;;;;;;;25.00;99.90;;;;;;5078561;28;19958;-74
2023/10/12 11:36:24;;;;;;;;;;;24.90;99.90;;;;;;5078518;28;19915;-74
2023/10/12 11:38:57;;;;;;;;;;;24.90;99.90;;;;;;5078372;28;19917;-75
2023/10/12 11:41:23;;;;;;;;;;;25.00;99.90;;;;;;5093973;28;20049;-74
2023/10/12 11:44:00;;;;;;;;;;;25.00;99.90;;;;;;5078219;28;19966;-75
2023/10/12 11:46:26;;;;;;;;;;;25.10;99.90;;;;;;5078530;28;19987;-74
2023/10/12 11:49:10;;;;;;;;;;;25.20;99.90;;;;;;5076860;28;19924;-75
2023/10/12 11:51:51;;;;;;;;;;;25.20;99.90;;;;;;5076950;28;19913;-75
2023/10/12 11:54:19;;;;;;;;;;;25.20;99.90;;;;;;5078114;28;20292;-75
2023/10/12 11:56:49;;;;;;;;;;;25.20;99.90;;;;;;5078218;28;19909;-74
2023/10/12 11:59:22;;;;;;;;;;;25.20;99.90;;;;;;5078559;28;19909;-74
2023/10/12 12:01:54;;;;;;;;;;;25.30;99.90;;;;;;5078196;28;19912;-74
2023/10/12 12:04:30;;;;;;;;;;;25.40;99.90;;;;;;5076727;28;20277;-74
2023/10/12 12:06:55;;;;;;;;;;;25.50;99.90;;;;;;5076725;28;20464;-74
2023/10/12 12:09:22;;;;;;;;;;;25.50;99.90;;;;;;5078340;28;20382;-76
2023/10/12 12:11:48;;;;;;;;;;;25.50;99.90;;;;;;5077843;28;19909;-74
2023/10/12 12:14:14;;;;;;;;;;;25.50;99.90;;;;;;5076450;28;19908;-75
2023/10/12 12:16:39;;;;;;;;;;;25.60;99.90;;;;;;5077718;28;20396;-74
2023/10/12 12:19:05;;;;;;;;;;;25.60;99.90;;;;;;5077772;28;19923;-74
2023/10/12 12:21:33;;;;;;;;;;;25.70;99.90;;;;;;5077152;28;19909;-75
2023/10/12 12:26:45;;;;;;;;;;;25.70;99.90;;;;;;5077744;28;19915;-74
2023/10/12 12:29:11;;;;;;;;;;;25.80;99.90;;;;;;5077498;28;20003;-75
2023/10/12 12:31:40;;;;;;;;;;;25.80;99.90;;;;;;5077269;28;19929;-75
2023/10/12 12:34:08;;;;;;;;;;;25.80;99.90;;;;;;5077419;28;19909;-74
2023/10/12 12:36:34;;;;;;;;;;;25.90;99.90;;;;;;5075927;28;19909;-75
2023/10/12 12:39:00;;;;;;;;;;;25.90;99.90;;;;;;5077196;28;19935;-74
2023/10/12 12:41:26;;;;;;;;;;;26.00;99.90;;;;;;5076080;28;19954;-74
2023/10/12 12:43:53;;;;;;;;;;;25.90;99.90;;;;;;5077011;28;19916;-75
2023/10/12 12:46:19;;;;;;;;;;;26.00;99.90;;;;;;5077044;28;19919;-74
2023/10/12 12:48:45;;;;;;;;;;;26.10;99.90;;;;;;5077149;28;20377;-74
2023/10/12 12:51:17;;;;;;;;;;;26.20;99.90;;;;;;5077039;28;19919;-75
2023/10/12 12:53:46;;;;;;;;;;;26.20;99.90;;;;;;5077219;28;20438;-73
2023/10/12 12:56:14;;;;;;;;;;;26.30;99.90;;;;;;5076974;28;20371;-74
2023/10/12 12:58:46;;;;;;;;;;;26.50;99.90;;;;;;5075470;28;19909;-74
2023/10/12 13:01:17;;;;;;;;;;;26.50;99.90;;;;;;5076823;28;20383;-74
2023/10/12 13:03:43;;;;;;;;;;;26.50;99.90;;;;;;5075625;28;19913;-74
2023/10/12 13:06:08;;;;;;;;;;;26.50;99.90;;;;;;5076833;28;20411;-74
2023/10/12 13:08:35;;;;;;;;;;;26.50;99.90;;;;;;5076769;28;19908;-74
2023/10/12 13:11:00;;;;;;;;;;;26.50;99.90;;;;;;5075295;28;19916;-74
2023/10/12 13:13:26;;;;;;;;;;;26.50;99.90;;;;;;5076623;28;19915;-74
2023/10/12 13:15:51;;;;;;;;;;;26.50;99.90;;;;;;5076661;28;19942;-74
2023/10/12 13:18:17;;;;;;;;;;;26.50;99.90;;;;;;5076571;28;19909;-74
2023/10/12 13:20:46;;;;;;;;;;;26.50;99.90;;;;;;5075283;28;20483;-74
2023/10/12 13:23:17;;;;;;;;;;;26.60;99.90;;;;;;5075214;28;19912;-74
2023/10/12 13:25:43;;;;;;;;;;;26.50;99.90;;;;;;5076991;28;19908;-75
2023/10/12 13:28:10;;;;;;;;;;;26.60;99.90;;;;;;5077091;28;19919;-75
2023/10/12 13:30:39;;;;;;;;;;;26.70;99.90;;;;;;5074786;28;19956;-74
2023/10/12 13:33:06;;;;;;;;;;;26.70;99.90;;;;;;5075536;28;19966;-74
2023/10/12 13:35:37;;;;;;;;;;;26.80;99.90;;;;;;5075120;28;19908;-74
2023/10/12 13:38:03;;;;;;;;;;;26.80;99.90;;;;;;5076233;28;20326;-74
2023/10/12 13:40:29;;;;;;;;;;;26.90;99.90;;;;;;5076592;28;19909;-74
2023/10/12 13:43:01;;;;;;;;;;;27.00;99.90;;;;;;5076065;28;19987;-74
2023/10/12 13:45:28;;;;;;;;;;;27.00;99.90;;;;;;5076377;28;19935;-74
2023/10/12 13:47:54;;;;;;;;;;;26.90;99.90;;;;;;5076394;28;19909;-74
2023/10/12 13:50:20;;;;;;;;;;;26.90;99.90;;;;;;5076391;28;20426;-74
2023/10/12 13:52:45;;;;;;;;;;;26.90;99.90;;;;;;5076185;28;19909;-75
2023/10/12 13:55:14;;;;;;;;;;;26.90;99.90;;;;;;5076246;28;20296;-74
2023/10/12 13:57:57;;;;;;;;;;;26.90;99.90;;;;;;5074794;28;20287;-74
2023/10/12 14:00:26;;;;;;;;;;;27.00;99.90;;;;;;5075999;28;19913;-75
2023/10/12 14:02:56;;;;;;;;;;;27.10;99.90;;;;;;5075990;28;19915;-75
2023/10/12 14:05:27;;;;;;;;;;;27.00;99.90;;;;;;5074782;28;19913;-75
2023/10/12 14:07:58;;;;;;;;;;;27.10;99.90;;;;;;5076292;28;19908;-74
2023/10/12 14:10:24;;;;;;;;;;;27.20;99.90;;;;;;5075988;28;19916;-74
2023/10/12 14:12:53;;;;;;;;;;;27.20;99.90;;;;;;5076071;28;19958;-74
2023/10/12 14:15:19;;;;;;;;;;;27.20;99.50;;;;;;5075808;28;20368;-74
2023/10/12 14:17:45;;;;;;;;;;;27.20;99.90;;;;;;5074665;28;19962;-74
2023/10/12 14:20:13;;;;;;;;;;;27.30;99.70;;;;;;5075839;28;19917;-74
2023/10/12 14:22:42;;;;;;;;;;;27.30;99.90;;;;;;5075832;28;19975;-75
2023/10/12 14:25:08;;;;;;;;;;;27.30;99.90;;;;;;5074477;28;19912;-74
2023/10/12 14:27:33;;;;;;;;;;;27.30;99.90;;;;;;5075833;28;19917;-75
2023/10/12 14:30:13;;;;;;;;;;;27.30;99.90;;;;;;5075461;28;19944;-75
2023/10/12 14:32:40;;;;;;;;;;;27.20;99.90;;;;;;5075643;28;20348;-75
2023/10/12 14:35:06;;;;;;;;;;;27.20;99.90;;;;;;5075673;28;19916;-74
2023/10/12 14:37:36;;;;;;;;;;;27.20;98.60;;;;;;5075862;28;19916;-74
2023/10/12 14:40:10;;;;;;;;;;;27.10;99.90;;;;;;5075801;28;20355;-75
2023/10/12 14:42:40;;;;;;;;;;;27.10;99.90;;;;;;5074434;28;20427;-75
2023/10/12 14:45:09;;;;;;;;;;;27.00;99.90;;;;;;5076292;28;20494;-74
2023/10/12 14:47:35;;;;;;;;;;;26.90;99.90;;;;;;5079576;28;19908;-75
2023/10/12 14:50:05;;;;;;;;;;;26.70;99.90;;;;;;5079382;28;20705;-75
2023/10/12 14:52:38;;;;;;;;;;;26.50;99.90;;;;;;5079349;28;19913;-74
2023/10/12 14:55:13;;;;;;;;;;;26.40;99.90;;;;;;5079380;28;19908;-74
2023/10/12 14:57:39;;;;;;;;;;;26.30;99.90;;;;;;5079479;28;19931;-75
2023/10/12 15:00:22;;;;;;;;;;;26.10;99.90;;;;;;5077709;28;19912;-75
2023/10/12 15:02:55;;;;;;;;;;;26.10;99.90;;;;;;5079092;28;19916;-75
2023/10/12 15:05:22;;;;;;;;;;;26.00;99.90;;;;;;5079069;28;19959;-76
2023/10/12 15:07:52;;;;;;;;;;;26.00;99.90;;;;;;5079126;28;19912;-75
2023/10/12 15:10:18;;;;;;;;;;;25.90;99.90;;;;;;5078936;28;19921;-76
2023/10/12 15:12:44;;;;;;;;;;;25.80;99.90;;;;;;5079014;28;19909;-75
2023/10/12 15:15:11;;;;;;;;;;;25.70;99.90;;;;;;5077283;28;19908;-75
2023/10/12 15:17:39;;;;;;;;;;;25.60;99.90;;;;;;5078932;28;20331;-76
2023/10/12 15:20:06;;;;;;;;;;;25.60;99.90;;;;;;5078800;28;19927;-75
2023/10/12 15:22:32;;;;;;;;;;;25.60;99.90;;;;;;5079073;28;20120;-74
2023/10/12 15:24:57;;;;;;;;;;;25.60;99.90;;;;;;5077403;28;19919;-75
2023/10/12 15:27:23;;;;;;;;;;;25.50;99.90;;;;;;5078771;28;20334;-76
2023/10/12 15:29:49;;;;;;;;;;;25.50;99.90;;;;;;5076907;28;19920;-74
2023/10/12 15:32:15;;;;;;;;;;;25.40;99.90;;;;;;5078472;28;19970;-75
2023/10/12 15:34:42;;;;;;;;;;;25.30;99.90;;;;;;5078712;28;19952;-76
2023/10/12 15:37:08;;;;;;;;;;;25.30;99.90;;;;;;5078703;28;19913;-75
2023/10/12 15:39:33;;;;;;;;;;;25.20;99.90;;;;;;5078425;28;19931;-76
2023/10/12 15:41:59;;;;;;;;;;;25.00;99.90;;;;;;5076969;28;19998;-78
2023/10/12 15:44:24;;;;;;;;;;;24.80;99.90;;;;;;5076995;28;20002;-77
2023/10/12 15:46:50;;;;;;;;;;;24.70;99.90;;;;;;5078537;28;19908;-78
2023/10/12 15:49:16;;;;;;;;;;;24.60;99.90;;;;;;5078679;28;20011;-79
2023/10/12 15:51:42;;;;;;;;;;;24.60;99.90;;;;;;5078482;28;20027;-80
2023/10/12 15:54:11;;;;;;;;;;;24.50;99.90;;;;;;5078263;28;19909;-78
2023/10/12 15:56:37;;;;;;;;;;;24.40;99.90;;;;;;5077334;28;19914;-79
2023/10/12 15:59:04;;;;;;;;;;;24.40;99.90;;;;;;5078061;28;19908;-79
2023/10/12 16:01:31;;;;;;;;;;;24.40;99.90;;;;;;5078259;28;19987;-80
2023/10/12 16:03:59;;;;;;;;;;;24.40;99.90;;;;;;5076464;28;19908;-79
2023/10/12 16:06:25;;;;;;;;;;;24.40;99.90;;;;;;5078328;28;20356;-79
2023/10/12 16:08:52;;;;;;;;;;;24.40;99.90;;;;;;5076724;28;19978;-79
2023/10/12 16:11:18;;;;;;;;;;;24.40;99.90;;;;;;5077860;28;19987;-77
2023/10/12 16:13:45;;;;;;;;;;;24.20;99.90;;;;;;5078062;28;19919;-77
2023/10/12 16:16:11;;;;;;;;;;;24.10;99.90;;;;;;5076544;28;20357;-78
2023/10/12 16:18:42;;;;;;;;;;;24.00;99.90;;;;;;5076427;28;19975;-76
2023/10/12 16:21:09;;;;;;;;;;;24.00;99.90;;;;;;5077676;28;19916;-74
2023/10/12 16:23:35;;;;;;;;;;;24.00;99.90;;;;;;5077191;28;19917;-74
2023/10/12 16:26:00;;;;;;;;;;;23.90;99.90;;;;;;5077767;28;20315;-74
2023/10/12 16:28:28;;;;;;;;;;;23.80;99.90;;;;;;5076192;28;19908;-76
2023/10/12 16:30:57;;;;;;;;;;;23.80;99.90;;;;;;5077387;28;20226;-76
2023/10/12 16:33:22;;;;;;;;;;;23.60;99.90;;;;;;5072789;28;20001;-76
2023/10/12 16:35:48;;;;;;;;;;;23.50;99.90;;;;;;5073641;28;19916;-75
2023/10/12 16:38:14;;;;;;;;;;;23.50;99.90;;;;;;5089836;28;20007;-73
2023/10/12 16:40:39;;;;;;;;;;;23.40;99.90;;;;;;5087417;28;19919;-74
2023/10/12 16:43:07;;;;;;;;;;;23.30;99.90;;;;;;5075983;28;20011;-74
2023/10/12 16:45:35;;;;;;;;;;;23.20;99.90;;;;;;5076401;28;19996;-74
2023/10/12 16:48:00;;;;;;;;;;;23.20;99.90;;;;;;5072715;28;19962;-74